Time;durP1;ratioP1;P1;durP2;ratioP2;P2;SDS_P1;SDS_P2;PMS_P1;PMS_P2;Temp;Humidity;BMP_temperature;BMP_pressure;BME280_temperature;BME280_humidity;BME280_pressure;Samples;Min_cycle;Max_cycle;Signal;HPM_P1;HPM_P2
2022/01/23 00:00:04;;;;;;;85.60;17.90;;;;;;;-145.69;100.00;74063.72;5051432;28;20733;-77
2022/01/23 00:02:33;;;;;;;92.37;18.40;;;;;;;-145.69;100.00;74053.78;5051768;28;20230;-78
2022/01/23 00:05:05;;;;;;;82.60;18.67;;;;;;;-145.69;100.00;74041.81;5038507;28;20208;-78
2022/01/23 00:07:32;;;;;;;87.90;19.67;;;;;;;-145.69;100.00;74055.75;5031553;28;20224;-78
2022/01/23 00:09:58;;;;;;;83.17;19.33;;;;;;;-145.69;100.00;74059.75;5031477;28;20686;-78
2022/01/23 00:12:27;;;;;;;76.23;19.27;;;;;;;-145.69;100.00;74061.72;5031690;28;20204;-78
2022/01/23 00:17:39;;;;;;;91.60;21.00;;;;;;;-145.69;100.00;74059.75;5031352;28;20266;-77
2022/01/23 00:20:08;;;;;;;86.17;19.00;;;;;;;-145.69;100.00;74057.75;5031557;28;20200;-77
2022/01/23 00:22:40;;;;;;;78.60;17.37;;;;;;;-145.69;100.00;74051.78;5031577;28;20200;-78
2022/01/23 00:30:39;;;;;;;49.37;13.77;;;;;;;-145.69;100.00;74041.81;5031396;28;20206;-78
2022/01/23 00:33:08;;;;;;;54.07;14.30;;;;;;;-145.69;100.00;74033.84;5031320;28;20204;-78
2022/01/23 00:35:37;;;;;;;71.13;16.70;;;;;;;-145.69;100.00;74039.84;5031180;28;20200;-78
2022/01/23 00:38:06;;;;;;;62.70;16.47;;;;;;;-145.69;100.00;74037.84;5014062;28;20215;-78
2022/01/23 00:40:34;;;;;;;62.57;16.13;;;;;;;-145.69;100.00;74041.81;5031097;28;20200;-78
2022/01/23 00:43:06;;;;;;;59.63;16.17;;;;;;;-145.69;100.00;74035.84;5031029;28;20249;-78
2022/01/23 00:45:41;;;;;;;57.13;16.40;;;;;;;-145.69;100.00;74053.78;5027217;28;20201;-77
2022/01/23 00:48:25;;;;;;;53.63;16.07;;;;;;;-145.69;100.00;74049.78;5030834;28;20582;-77
2022/01/23 00:50:52;;;;;;;59.60;16.13;;;;;;;-145.69;100.00;74041.81;5028604;28;20235;-77
2022/01/23 00:53:26;;;;;;;57.10;15.97;;;;;;;-145.69;100.00;74047.78;5030875;28;20601;-77
2022/01/23 00:55:55;;;;;;;56.30;15.17;;;;;;;-145.69;100.00;74037.84;5030922;28;20849;-78
2022/01/23 00:58:25;;;;;;;53.63;16.30;;;;;;;-145.69;100.00;74037.84;5030954;28;20249;-78
2022/01/23 01:00:54;;;;;;;61.43;16.20;;;;;;;-145.69;100.00;74041.81;5030974;28;20208;-78
2022/01/23 01:03:23;;;;;;;54.10;15.27;;;;;;;-145.69;100.00;74035.84;5030732;28;20651;-77
2022/01/23 01:05:56;;;;;;;62.70;16.80;;;;;;;-145.69;100.00;74039.84;5050185;28;20672;-78
2022/01/23 01:08:33;;;;;;;60.93;15.33;;;;;;;-145.69;100.00;74041.81;5050645;28;20757;-78
2022/01/23 01:11:21;;;;;;;61.53;16.50;;;;;;;-145.69;100.00;74037.84;5050462;28;20677;-78
2022/01/23 01:14:07;;;;;;;62.87;16.63;;;;;;;-145.69;100.00;74039.84;5050460;28;20202;-77
2022/01/23 01:16:52;;;;;;;64.77;16.90;;;;;;;-145.69;100.00;74037.84;5050698;28;20210;-77
2022/01/23 01:30:32;;;;;;;66.13;18.13;;;;;;;-145.69;100.00;74011.97;5050188;28;20198;-77
2022/01/23 01:33:12;;;;;;;61.83;18.03;;;;;;;-145.69;100.00;74000.00;5050058;28;20212;-77
2022/01/23 01:35:49;;;;;;;55.80;16.43;;;;;;;-145.69;100.00;73998.03;5049984;28;20585;-76
2022/01/23 01:38:17;;;;;;;56.60;16.03;;;;;;;-145.69;100.00;73988.06;5050192;28;20210;-77
2022/01/23 01:40:48;;;;;;;52.23;15.70;;;;;;;-145.69;100.00;73990.06;5049902;28;20562;-77
2022/01/23 01:43:17;;;;;;;56.23;17.23;;;;;;;-145.69;100.00;74002.00;5049991;28;20195;-77
2022/01/23 01:45:44;;;;;;;60.03;18.73;;;;;;;-145.69;100.00;73996.03;5044702;28;20232;-77
2022/01/23 01:48:15;;;;;;;59.67;17.90;;;;;;;-145.69;100.00;73986.06;5010944;28;20258;-77
2022/01/23 01:50:47;;;;;;;64.93;16.73;;;;;;;-145.69;100.00;73994.03;5010457;28;20299;-77
2022/01/23 01:53:14;;;;;;;58.20;17.30;;;;;;;-145.69;100.00;73990.06;5010498;28;20205;-77
2022/01/23 01:55:45;;;;;;;64.23;17.47;;;;;;;-145.69;100.00;73996.03;5023130;28;20219;-78
2022/01/23 01:58:33;;;;;;;54.47;16.13;;;;;;;-145.69;100.00;73992.03;5029740;28;20210;-78
2022/01/23 02:01:06;;;;;;;75.37;17.83;;;;;;;-145.69;100.00;73998.03;5030082;28;20299;-78
2022/01/23 02:08:19;;;;;;;104.83;20.70;;;;;;;-145.69;100.00;74005.97;5030654;28;20300;-77
2022/01/23 02:09:17;;;;;;;95.10;19.90;;;;;;;-145.69;100.00;74013.94;5049723;28;20210;-77
2022/01/23 02:12:17;;;;;;;100.10;21.20;;;;;;;-145.69;100.00;74015.94;5050115;28;20195;-77
2022/01/23 02:14:55;;;;;;;85.10;20.50;;;;;;;-145.69;100.00;74029.88;5049178;28;20200;-77
2022/01/23 02:17:41;;;;;;;72.23;17.90;;;;;;;-145.69;100.00;74029.88;5049518;28;20260;-77
2022/01/23 02:23:26;;;;;;;92.67;19.63;;;;;;;-145.69;100.00;73998.03;5070226;28;20201;-77
2022/01/23 02:51:11;;;;;;;81.83;18.63;;;;;;;-145.69;100.00;74000.00;5049186;28;20238;-77
2022/01/23 02:54:05;;;;;;;66.73;17.03;;;;;;;-145.69;100.00;73990.06;5049336;28;20306;-77
2022/01/23 02:56:34;;;;;;;63.63;17.07;;;;;;;-145.69;100.00;73990.06;5016081;28;20664;-77
2022/01/23 02:59:11;;;;;;;66.63;15.97;;;;;;;-145.69;100.00;73986.06;5009650;28;20216;-77
2022/01/23 03:01:48;;;;;;;100.27;18.43;;;;;;;-145.69;100.00;73978.09;5009852;28;20247;-77
2022/01/23 03:04:20;;;;;;;69.37;16.57;;;;;;;-145.69;100.00;73960.19;5022568;28;20196;-77
2022/01/23 03:06:57;;;;;;;80.57;17.70;;;;;;;-145.69;100.00;73966.16;5048946;28;20203;-77
2022/01/23 03:13:00;;;;;;;62.30;16.67;;;;;;;-145.69;100.00;73962.19;5053960;28;20198;-77
2022/01/23 03:15:10;;;;;;;72.83;17.43;;;;;;;-145.69;100.00;73978.09;5051892;28;20618;-78
2022/01/23 03:26:16;;;;;;;71.17;17.87;;;;;;;-145.69;100.00;73964.16;5052246;28;20274;-77
2022/01/23 03:31:30;;;;;;;59.07;14.87;;;;;;;-145.69;100.00;73966.16;5051508;28;20226;-77
2022/01/23 03:33:57;;;;;;;59.63;16.00;;;;;;;-145.69;100.00;73966.16;5051872;28;20211;-77
2022/01/23 03:36:25;;;;;;;63.23;16.47;;;;;;;-145.69;100.00;73962.19;5051887;28;20713;-77
2022/01/23 03:38:52;;;;;;;59.10;15.87;;;;;;;-145.69;100.00;73968.16;5051934;28;20298;-77
2022/01/23 03:41:22;;;;;;;72.43;17.40;;;;;;;-145.69;100.00;73962.19;5051698;28;20677;-77
2022/01/23 03:43:49;;;;;;;71.80;17.67;;;;;;;-145.69;100.00;73974.13;5051870;28;20271;-76
2022/01/23 03:46:33;;;;;;;83.53;17.63;;;;;;;-145.69;100.00;73978.09;5051629;28;20570;-77
2022/01/23 03:51:44;;;;;;;66.13;17.10;;;;;;;-145.69;100.00;73962.19;5051839;28;20213;-77
2022/01/23 03:54:11;;;;;;;58.83;16.60;;;;;;;-145.69;100.00;73988.06;5051710;28;20200;-77
2022/01/23 03:56:39;;;;;;;57.57;16.13;;;;;;;-145.69;100.00;73994.03;5051521;28;20638;-78
2022/01/23 03:59:05;;;;;;;59.37;17.67;;;;;;;-145.69;100.00;73988.06;5051788;28;20206;-78
2022/01/23 04:01:33;;;;;;;69.73;17.10;;;;;;;-145.69;100.00;73990.06;5051480;28;20684;-78
2022/01/23 04:04:04;;;;;;;62.20;16.23;;;;;;;-145.69;100.00;74000.00;5046725;28;20784;-78
2022/01/23 04:06:33;;;;;;;62.07;16.30;;;;;;;-145.69;100.00;74002.00;5031670;28;20223;-78
2022/01/23 04:09:00;;;;;;;51.63;14.87;;;;;;;-145.69;100.00;74002.00;5031438;28;20228;-78
2022/01/23 04:11:29;;;;;;;59.37;15.43;;;;;;;-145.69;100.00;74011.97;5031268;28;20655;-78
2022/01/23 04:14:02;;;;;;;57.60;15.43;;;;;;;-145.69;100.00;74011.97;5031625;28;20277;-78
2022/01/23 04:16:48;;;;;;;55.50;16.70;;;;;;;-145.69;100.00;73998.03;5031788;28;20605;-78
2022/01/23 05:01:15;;;;;;;50.10;14.43;;;;;;;-145.69;100.00;74017.94;5027558;28;20215;-78
2022/01/23 05:06:43;;;;;;;59.00;15.07;;;;;;;-145.69;100.00;74017.94;5050824;28;20199;-78
2022/01/23 05:09:11;;;;;;;53.73;14.07;;;;;;;-145.69;100.00;74015.94;5050473;28;20310;-78
2022/01/23 05:11:47;;;;;;;66.23;15.90;;;;;;;-145.69;100.00;74021.91;5050368;28;20213;-78
2022/01/23 05:14:13;;;;;;;63.40;16.70;;;;;;;-145.69;100.00;74017.94;5050677;28;20244;-78
2022/01/23 05:16:40;;;;;;;61.70;15.37;;;;;;;-145.69;100.00;74011.97;5050757;28;20199;-78
2022/01/23 05:19:08;;;;;;;62.97;16.27;;;;;;;-145.69;100.00;74011.97;5050204;28;20235;-78
2022/01/23 05:22:01;;;;;;;64.83;16.83;;;;;;;-145.69;100.00;74017.94;5050512;28;20200;-78
2022/01/23 05:24:34;;;;;;;65.87;18.00;;;;;;;-145.69;100.00;74015.94;5050574;28;20203;-78
2022/01/23 05:27:04;;;;;;;66.73;18.37;;;;;;;-145.69;100.00;74002.00;5050533;28;20195;-78
2022/01/23 05:29:30;;;;;;;61.67;18.20;;;;;;;-145.69;100.00;74005.97;5050365;28;20234;-78
2022/01/23 05:31:57;;;;;;;71.13;17.57;;;;;;;-145.69;100.00;73994.03;5050202;28;20200;-78
2022/01/23 05:34:25;;;;;;;70.10;18.00;;;;;;;-145.69;100.00;73986.06;5050107;28;20684;-79
2022/01/23 05:36:53;;;;;;;71.00;18.67;;;;;;;-145.69;100.00;74007.97;5050271;28;20200;-78
2022/01/23 05:39:23;;;;;;;68.80;16.67;;;;;;;-145.69;100.00;73998.03;5050140;28;20290;-78
2022/01/23 05:41:53;;;;;;;57.13;15.80;;;;;;;-145.69;100.00;73998.03;5050002;28;20200;-78
2022/01/23 05:44:22;;;;;;;71.60;18.73;;;;;;;-145.69;100.00;74011.97;5049865;28;20286;-78
2022/01/23 05:46:48;;;;;;;62.70;16.77;;;;;;;-145.69;100.00;74015.94;5050082;28;20200;-78
2022/01/23 05:49:14;;;;;;;67.67;18.13;;;;;;;-145.69;100.00;74011.97;5049786;28;20238;-77
2022/01/23 05:51:42;;;;;;;62.10;15.70;;;;;;;-145.69;100.00;74009.97;5049913;28;20666;-78
2022/01/23 05:54:09;;;;;;;64.87;17.27;;;;;;;-145.69;100.00;74017.94;5050000;28;20203;-78
2022/01/23 05:56:35;;;;;;;56.80;14.47;;;;;;;-145.69;100.00;74013.94;5049914;28;20195;-78
2022/01/23 05:59:02;;;;;;;68.20;17.03;;;;;;;-145.69;100.00;74013.94;5049834;28;20098;-78
2022/01/23 06:01:28;;;;;;;62.93;15.77;;;;;;;-145.69;100.00;74017.94;5049618;28;20585;-78
2022/01/23 06:03:55;;;;;;;57.90;16.23;;;;;;;-145.69;100.00;74007.97;5045796;28;20223;-78
2022/01/23 06:06:21;;;;;;;51.57;14.70;;;;;;;-145.69;100.00;74013.94;5030019;28;20208;-78
2022/01/23 06:08:49;;;;;;;50.93;15.00;;;;;;;-145.69;100.00;74019.91;5029887;28;20231;-77
2022/01/23 06:11:17;;;;;;;48.13;14.60;;;;;;;-145.69;100.00;74019.91;5029696;28;20207;-77
2022/01/23 06:13:43;;;;;;;47.43;14.13;;;;;;;-145.69;100.00;74017.94;5029741;28;20199;-78
2022/01/23 06:16:10;;;;;;;57.57;16.27;;;;;;;-145.69;100.00;74013.94;5029675;28;20208;-78
2022/01/23 06:18:41;;;;;;;51.23;14.73;;;;;;;-145.69;100.00;74017.94;5029061;28;20284;-78
2022/01/23 06:21:08;;;;;;;50.93;14.43;;;;;;;-145.69;100.00;74023.91;5029849;28;20291;-78
2022/01/23 06:23:34;;;;;;;51.57;14.10;;;;;;;-145.69;100.00;74031.88;5029652;28;20681;-78
2022/01/23 06:26:02;;;;;;;44.93;14.37;;;;;;;-145.69;100.00;74041.81;5029867;28;20207;-78
2022/01/23 06:28:40;;;;;;;50.60;13.80;;;;;;;-145.69;100.00;74049.78;5029283;28;20235;-78
2022/01/23 06:31:08;;;;;;;41.07;13.03;;;;;;;-145.69;100.00;74053.78;5029802;28;20246;-78
2022/01/23 06:33:34;;;;;;;46.70;12.90;;;;;;;-145.69;100.00;74057.75;5029923;28;20753;-78
2022/01/23 06:36:01;;;;;;;43.60;13.37;;;;;;;-145.69;100.00;74057.75;5029733;28;20204;-78
2022/01/23 06:38:28;;;;;;;52.50;13.03;;;;;;;-145.69;100.00;74055.75;5029609;28;20204;-78
2022/01/23 06:40:54;;;;;;;39.30;12.30;;;;;;;-145.69;100.00;74057.75;5029434;28;20201;-78
2022/01/23 06:43:22;;;;;;;39.60;12.03;;;;;;;-145.69;100.00;74061.72;5031064;28;20212;-79
2022/01/23 06:45:49;;;;;;;41.57;12.27;;;;;;;-145.69;100.00;74059.75;5032769;28;20206;-78
2022/01/23 06:48:17;;;;;;;40.60;12.53;;;;;;;-145.69;100.00;74057.75;5032856;28;20233;-78
2022/01/23 06:50:44;;;;;;;39.87;12.07;;;;;;;-145.69;100.00;74061.72;5032958;28;20231;-78
2022/01/23 06:53:12;;;;;;;33.77;10.83;;;;;;;-145.69;100.00;74067.72;5029493;28;20201;-77
2022/01/23 06:55:39;;;;;;;44.80;12.13;;;;;;;-145.69;100.00;74061.72;5032668;28;20204;-78
2022/01/23 06:58:05;;;;;;;47.50;14.03;;;;;;;-145.69;100.00;74067.72;5032532;28;20212;-78
2022/01/23 07:00:38;;;;;;;38.13;11.93;;;;;;;-145.69;100.00;74061.72;5032701;28;20208;-77
2022/01/23 07:03:07;;;;;;;39.87;11.87;;;;;;;-145.69;100.00;74061.72;5032829;28;20239;-78
2022/01/23 07:05:33;;;;;;;33.80;10.77;;;;;;;-145.69;100.00;74057.75;5049916;28;20192;-78
2022/01/23 07:08:02;;;;;;;40.03;11.57;;;;;;;-145.69;100.00;74059.75;5052354;28;20235;-78
2022/01/23 07:10:29;;;;;;;35.07;11.87;;;;;;;-145.69;100.00;74059.75;5052185;28;20199;-77
2022/01/23 07:12:56;;;;;;;50.53;13.93;;;;;;;-145.69;100.00;74059.75;5052525;28;20208;-77
2022/01/23 07:15:30;;;;;;;48.23;13.57;;;;;;;-145.69;100.00;74055.75;5052297;28;20204;-78
2022/01/23 07:17:57;;;;;;;40.20;12.40;;;;;;;-145.69;100.00;74041.81;5052187;28;20230;-77
2022/01/23 07:20:24;;;;;;;40.50;12.83;;;;;;;-145.69;100.00;74049.78;5052311;28;20219;-77
2022/01/23 07:22:51;;;;;;;49.37;13.30;;;;;;;-145.69;100.00;74045.81;5052183;28;20204;-77
2022/01/23 07:25:17;;;;;;;60.30;15.00;;;;;;;-145.69;100.00;74041.81;5052382;28;20207;-78
2022/01/23 07:27:49;;;;;;;39.67;13.67;;;;;;;-145.69;100.00;74041.81;5052222;28;20255;-77
2022/01/23 07:30:27;;;;;;;46.73;14.33;;;;;;;-145.69;100.00;74035.84;5052287;28;20206;-77
2022/01/23 07:32:54;;;;;;;38.07;12.63;;;;;;;-145.69;100.00;74039.84;5052334;28;20588;-77
2022/01/23 07:35:22;;;;;;;37.07;12.73;;;;;;;-145.69;100.00;74029.88;5051932;28;20203;-78
2022/01/23 07:37:52;;;;;;;58.72;19.10;;;;;;;-145.69;100.00;74027.88;5051250;28;20917;-77
2022/01/23 07:40:19;;;;;;;46.97;13.93;;;;;;;-145.69;100.00;74021.91;5052098;28;20565;-78
2022/01/23 07:42:45;;;;;;;48.73;14.93;;;;;;;-145.69;100.00;74017.94;5051871;28;20661;-78
2022/01/23 07:45:14;;;;;;;59.50;17.50;;;;;;;-145.69;100.00;74017.94;5051803;28;20207;-77
2022/01/23 07:47:41;;;;;;;56.60;16.47;;;;;;;-145.69;100.00;74004.00;5051929;28;20215;-77
2022/01/23 07:50:09;;;;;;;48.90;15.17;;;;;;;-145.69;100.00;73992.03;5051505;28;20232;-77
2022/01/23 07:52:38;;;;;;;54.03;16.20;;;;;;;-145.69;100.00;73990.06;5051821;28;20297;-77
2022/01/23 07:55:06;;;;;;;60.97;16.47;;;;;;;-145.69;100.00;74013.94;5050663;28;20199;-78
2022/01/23 07:57:33;;;;;;;49.57;15.13;;;;;;;-145.69;100.00;74004.00;5051547;28;20199;-77
2022/01/23 08:00:00;;;;;;;47.63;14.53;;;;;;;-145.69;100.00;73986.06;5051726;28;20204;-78
2022/01/23 08:02:27;;;;;;;43.00;13.83;;;;;;;-145.69;100.00;73976.13;5051667;28;20299;-78
2022/01/23 08:04:57;;;;;;;50.77;15.67;;;;;;;-145.69;100.00;73976.13;5039544;28;20253;-78
2022/01/23 08:07:30;;;;;;;56.83;15.83;;;;;;;-145.69;100.00;73978.09;5031672;28;20659;-79
2022/01/23 08:10:00;;;;;;;46.33;14.53;;;;;;;-145.69;100.00;73984.09;5031670;28;20228;-78
2022/01/23 08:12:30;;;;;;;44.87;13.90;;;;;;;-145.69;100.00;73978.09;5031562;28;20257;-78
2022/01/23 08:14:58;;;;;;;40.27;14.50;;;;;;;-145.69;100.00;73966.16;5031425;28;20201;-78
2022/01/23 08:17:25;;;;;;;36.43;12.63;;;;;;;-145.69;100.00;73954.22;5031446;28;20286;-78
2022/01/23 08:19:53;;;;;;;36.90;12.23;;;;;;;-145.69;100.00;73936.28;5031359;28;20207;-77
2022/01/23 08:22:21;;;;;;;38.17;13.97;;;;;;;-145.69;100.00;73968.16;5031634;28;20235;-78
2022/01/23 08:24:51;;;;;;;35.10;12.67;;;;;;;-145.69;100.00;73940.28;5031425;28;20204;-78
2022/01/23 08:27:20;;;;;;;45.43;14.43;;;;;;;-145.69;100.00;73920.38;5031466;28;20204;-78
2022/01/23 08:29:47;;;;;;;39.93;13.20;;;;;;;-145.69;100.00;73902.44;5031386;28;20322;-79
2022/01/23 08:32:16;;;;;;;31.67;12.73;;;;;;;-145.69;100.00;73924.34;5031352;28;20210;-79
2022/01/23 08:34:45;;;;;;;29.90;10.50;;;;;;;-145.69;100.00;73906.44;5031462;28;20268;-80
2022/01/23 08:37:12;;;;;;;35.73;12.47;;;;;;;-145.69;100.00;73884.53;5031122;28;20651;-79
2022/01/23 08:39:41;;;;;;;31.27;11.30;;;;;;;-145.69;100.00;73864.63;5031472;28;20296;-78
2022/01/23 08:42:10;;;;;;;38.97;14.50;;;;;;;-145.69;100.00;73878.56;5031109;28;20207;-78
2022/01/23 08:44:39;;;;;;;32.80;12.87;;;;;;;-145.69;100.00;73870.59;5031165;28;20226;-79
2022/01/23 08:47:08;;;;;;;30.57;11.87;;;;;;;-145.69;100.00;73828.78;5031052;28;20228;-79
2022/01/23 08:49:43;;;;;;;30.80;11.93;;;;;;;-145.69;100.00;73812.84;5028872;28;20239;-79
2022/01/23 08:52:16;;;;;;;27.80;11.43;;;;;;;-145.69;100.00;73779.00;5011242;28;20200;-79
2022/01/23 08:54:43;;;;;;;31.53;12.87;;;;;;;-145.69;100.00;73792.94;5010964;28;20201;-80
2022/01/23 08:57:12;;;;;;;26.80;11.40;;;;;;;-145.69;100.00;73806.88;5011278;28;20205;-80
2022/01/23 08:59:41;;;;;;;25.83;10.57;;;;;;;-145.69;100.00;73769.03;5011465;28;20208;-80
2022/01/23 09:02:08;;;;;;;22.00;9.33;;;;;;;-145.69;100.00;73749.13;5010937;28;20204;-80
2022/01/23 09:04:34;;;;;;;22.97;9.30;;;;;;;-145.69;100.00;73749.13;5029587;28;20195;-80
2022/01/23 09:07:01;;;;;;;21.90;9.60;;;;;;;-145.69;100.00;73751.13;5050079;28;20195;-80
2022/01/23 09:09:31;;;;;;;21.20;9.33;;;;;;;-145.69;100.00;73804.88;5048926;28;20254;-80
2022/01/23 09:12:03;;;;;;;24.60;9.03;;;;;;;-145.69;100.00;73806.88;5048853;28;20199;-80
2022/01/23 09:14:30;;;;;;;23.73;9.47;;;;;;;-145.69;100.00;73773.03;5048389;28;20206;-80
2022/01/23 09:16:59;;;;;;;19.83;9.47;;;;;;;-145.69;100.00;73753.13;5048479;28;20202;-80
2022/01/23 09:19:27;;;;;;;16.60;7.73;;;;;;;-145.69;100.00;73759.09;5048468;28;20705;-80
2022/01/23 09:21:54;;;;;;;18.83;8.60;;;;;;;-145.69;100.00;73775.00;5048738;28;20199;-81
2022/01/23 09:24:22;;;;;;;20.53;9.33;;;;;;;-145.69;100.00;73751.13;5049716;28;20700;-80
2022/01/23 09:26:53;;;;;;;23.00;10.23;;;;;;;-145.69;100.00;73755.09;5050410;28;20206;-80
2022/01/23 09:29:29;;;;;;;26.20;11.27;;;;;;;-145.69;100.00;73747.13;5050339;28;20238;-80
2022/01/23 09:31:55;;;;;;;26.57;11.73;;;;;;;-145.69;100.00;73775.00;5050238;28;20223;-80
2022/01/23 09:34:26;;;;;;;22.70;11.50;;;;;;;-145.69;100.00;73755.09;5050106;28;20199;-80
2022/01/23 09:36:55;;;;;;;28.37;11.53;;;;;;;-145.69;100.00;73735.19;5050317;28;20569;-81
2022/01/23 09:39:22;;;;;;;24.87;11.30;;;;;;;-145.69;100.00;73719.25;5050139;28;20203;-80
2022/01/23 09:41:50;;;;;;;26.17;12.13;;;;;;;-145.69;100.00;73729.22;5050143;28;20203;-81
2022/01/23 09:44:19;;;;;;;26.70;11.40;;;;;;;-145.69;100.00;73723.25;5050016;28;20558;-80
2022/01/23 09:46:47;;;;;;;27.57;11.23;;;;;;;-145.69;100.00;73782.97;5049948;28;20199;-80
2022/01/23 09:49:16;;;;;;;25.20;10.60;;;;;;;-145.69;100.00;73781.00;5050067;28;20223;-80
2022/01/23 09:51:46;;;;;;;25.20;10.77;;;;;;;-145.69;100.00;73782.97;5049315;28;20200;-80
2022/01/23 09:54:15;;;;;;;21.50;9.37;;;;;;;-145.69;100.00;73786.97;5050043;28;20199;-80
2022/01/23 09:56:43;;;;;;;24.60;10.33;;;;;;;-145.69;100.00;73767.06;5049973;28;20214;-80
2022/01/23 09:59:10;;;;;;;20.63;8.97;;;;;;;-145.69;100.00;73739.19;5049793;28;20713;-80
2022/01/23 10:01:39;;;;;;;19.67;9.27;;;;;;;-145.69;100.00;73701.34;5050105;28;20196;-80
2022/01/23 10:04:06;;;;;;;25.47;10.43;;;;;;;-145.69;100.00;73683.44;5043946;28;20227;-81
2022/01/23 10:06:34;;;;;;;24.87;11.13;;;;;;;-145.69;100.00;73655.56;5030173;28;20201;-81
2022/01/23 10:09:07;;;;;;;28.83;13.40;;;;;;;-145.69;100.00;73611.75;5029128;28;20224;-79
2022/01/23 10:11:38;;;;;;;23.37;10.23;;;;;;;-145.69;100.00;73643.59;5029474;28;20228;-80
2022/01/23 10:14:07;;;;;;;23.20;11.43;;;;;;;-145.69;100.00;73703.34;5030164;28;20196;-84
2022/01/23 10:16:36;;;;;;;20.77;9.47;;;;;;;-145.69;100.00;73729.22;5029519;28;20207;-83
2022/01/23 10:19:07;;;;;;;18.77;8.67;;;;;;;-145.69;100.00;73699.34;5032068;28;20733;-79
2022/01/23 10:21:37;;;;;;;20.97;9.33;;;;;;;-145.69;100.00;73651.56;5033330;28;20235;-80
2022/01/23 10:24:10;;;;;;;23.30;9.37;;;;;;;-145.69;100.00;73639.63;5032186;28;20200;-80
2022/01/23 10:26:47;;;;;;;25.83;11.30;;;;;;;-145.69;100.00;73641.63;5032862;28;20264;-82
2022/01/23 10:29:18;;;;;;;31.50;14.33;;;;;;;-145.69;100.00;73679.44;5032691;28;20239;-82
2022/01/23 10:32:18;;;;;;;27.07;11.63;;;;;;;-145.69;100.00;73647.59;5033007;28;20231;-81
2022/01/23 10:34:51;;;;;;;22.13;10.93;;;;;;;-145.69;100.00;73651.56;5032360;28;20208;-82
2022/01/23 10:37:40;;;;;;;24.47;11.70;;;;;;;-145.69;100.00;73735.19;5032189;28;20294;-82
2022/01/23 10:40:12;;;;;;;26.80;12.30;;;;;;;-145.69;100.00;73721.25;5027334;28;20200;-82
2022/01/23 10:48:39;;;;;;;23.43;11.07;;;;;;;-145.69;100.00;73649.59;5032885;28;20321;-81
2022/01/23 10:51:35;;;;;;;19.73;9.20;;;;;;;-145.69;100.00;73687.41;5032603;28;20228;-82
2022/01/23 10:54:22;;;;;;;16.27;7.80;;;;;;;-145.69;100.00;73671.47;5031990;28;20204;-81
2022/01/23 10:57:06;;;;;;;17.83;7.73;;;;;;;-145.69;100.00;73655.56;5030656;28;20196;-81
2022/01/23 10:59:50;;;;;;;14.80;7.43;;;;;;;-145.69;98.33;73643.59;5032642;28;20207;-81
2022/01/23 11:02:21;;;;;;;12.80;6.53;;;;;;;-145.69;97.80;73615.72;5026242;28;20270;-78
2022/01/23 11:05:01;;;;;;;22.33;9.87;;;;;;;-145.69;96.16;73593.84;5035208;28;20203;-79
2022/01/23 11:07:30;;;;;;;16.23;6.73;;;;;;;-145.69;94.95;73591.84;5052168;28;20207;-79
2022/01/23 11:10:02;;;;;;;21.67;10.53;;;;;;;-145.69;98.21;73607.78;5050528;28;20234;-80
2022/01/23 11:18:15;;;;;;;11.83;5.40;;;;;;;-145.69;91.36;73709.31;5052085;28;20275;-80
2022/01/23 11:20:44;;;;;;;5.47;2.73;;;;;;;-145.69;90.69;73737.19;5052211;28;20214;-80
2022/01/23 11:23:13;;;;;;;5.93;2.97;;;;;;;-145.69;92.71;73707.31;5052305;28;20200;-80
2022/01/23 11:25:44;;;;;;;2.00;1.30;;;;;;;-145.69;91.34;73663.53;5052241;28;20200;-80
2022/01/23 11:28:13;;;;;;;3.93;1.90;;;;;;;-145.69;90.34;73651.56;5051083;28;20200;-80
2022/01/23 11:30:43;;;;;;;14.30;7.00;;;;;;;-145.69;89.78;73645.59;5051873;28;20234;-79
2022/01/23 11:33:12;;;;;;;4.30;2.57;;;;;;;-145.69;90.12;73631.66;5051811;28;20779;-79
2022/01/23 11:35:39;;;;;;;3.03;1.70;;;;;;;-145.69;92.20;73635.66;5033083;28;20197;-79
2022/01/23 11:38:14;;;;;;;3.70;2.20;;;;;;;-145.69;92.75;73637.63;5012172;28;20211;-80
2022/01/23 11:54:56;;;;;;;2.40;1.80;;;;;;;-145.69;89.88;73643.59;5032053;28;20662;-79
2022/01/23 11:57:45;;;;;;;3.77;3.03;;;;;;;-145.69;87.73;73639.63;5028572;28;20227;-79
2022/01/23 12:00:24;;;;;;;1.97;1.63;;;;;;;-145.69;90.12;73641.63;5032073;28;20235;-79
2022/01/23 12:03:12;;;;;;;2.10;1.57;;;;;;;-145.69;90.23;73619.72;5031531;28;20713;-79
2022/01/23 12:05:42;;;;;;;2.20;1.50;;;;;;;-145.69;89.83;73623.69;5031907;28;20214;-79
2022/01/23 12:08:35;;;;;;;2.53;1.60;;;;;;;-145.69;88.68;73605.78;5031525;28;20710;-79
2022/01/23 12:11:35;;;;;;;1.90;1.50;;;;;;;-145.69;85.65;73599.81;5019854;28;20710;-79
2022/01/23 12:17:40;;;;;;;2.70;1.43;;;;;;;-145.69;85.63;73577.91;5011687;28;20704;-79
2022/01/23 12:20:08;;;;;;;3.17;1.70;;;;;;;-145.69;87.03;73587.88;5011608;28;20567;-79
2022/01/23 12:22:43;;;;;;;2.47;1.70;;;;;;;-145.69;87.93;73615.72;5011815;28;20204;-79
2022/01/23 12:25:19;;;;;;;4.07;2.00;;;;;;;-145.69;87.40;73585.88;5011012;28;20283;-79
2022/01/23 12:27:46;;;;;;;2.27;1.50;;;;;;;-145.69;85.04;73591.84;5015655;28;20196;-79
2022/01/23 12:30:33;;;;;;;3.33;1.70;;;;;;;-145.69;91.69;73591.84;5072526;27;20221;-78
2022/01/23 12:33:32;;;;;;;3.00;2.10;;;;;;;-145.69;87.59;73605.78;5135033;27;20196;-77
2022/01/23 12:36:07;;;;;;;2.23;1.73;;;;;;;-145.69;88.23;73613.75;5135111;27;20231;-77
2022/01/23 12:38:40;;;;;;;5.13;2.70;;;;;;;-145.69;88.76;73583.88;5134954;27;20299;-79
2022/01/23 12:41:30;;;;;;;3.43;2.20;;;;;;;-145.69;88.26;73556.00;5066643;27;20684;-79
2022/01/23 12:43:59;;;;;;;3.27;2.00;;;;;;;-145.69;86.35;73601.81;5031150;28;20291;-79
2022/01/23 12:46:32;;;;;;;4.20;2.80;;;;;;;-145.69;87.18;73601.81;5030814;28;20742;-78
2022/01/23 12:49:16;;;;;;;2.63;1.80;;;;;;;-145.69;88.41;73599.81;5030745;28;20223;-79
2022/01/23 12:51:43;;;;;;;4.43;2.13;;;;;;;-145.69;87.82;73603.78;5029673;28;20208;-79
2022/01/23 12:54:22;;;;;;;2.80;1.70;;;;;;;-145.69;89.26;73619.72;5030721;28;20211;-79
2022/01/23 12:56:51;;;;;;;3.23;2.10;;;;;;;-145.69;87.52;73621.72;5027445;28;20228;-77
2022/01/23 12:59:26;;;;;;;3.80;2.10;;;;;;;-145.69;90.19;73591.84;5030729;28;20204;-79
2022/01/23 13:02:00;;;;;;;3.70;2.00;;;;;;;-145.69;87.44;73611.75;5030749;28;20204;-80
2022/01/23 13:04:33;;;;;;;3.90;2.33;;;;;;;-145.69;84.58;73633.66;5030691;28;20204;-80
2022/01/23 13:07:09;;;;;;;4.90;2.70;;;;;;;-145.69;84.87;73599.81;5030938;28;20215;-78
2022/01/23 13:09:43;;;;;;;4.10;2.40;;;;;;;-145.69;87.51;73595.81;5028262;28;20204;-80
2022/01/23 13:12:14;;;;;;;5.73;2.83;;;;;;;-145.69;87.23;73605.78;5010747;28;20246;-80
2022/01/23 13:14:48;;;;;;;5.70;2.90;;;;;;;-145.69;87.81;73605.78;5011000;28;20258;-80
2022/01/23 13:17:37;;;;;;;4.40;2.57;;;;;;;-145.69;87.58;73623.69;5010866;28;20211;-77
2022/01/23 13:31:08;;;;;;;6.80;2.80;;;;;;;-145.69;91.40;73655.56;5030001;28;20223;-77
2022/01/23 13:33:38;;;;;;;5.37;2.90;;;;;;;-145.69;88.70;73647.59;5024317;28;20205;-79
2022/01/23 13:36:09;;;;;;;4.70;2.70;;;;;;;-145.69;90.33;73655.56;5039512;28;20520;-80
2022/01/23 13:38:37;;;;;;;5.43;2.40;;;;;;;-145.69;89.96;73673.47;5010554;28;20212;-78
2022/01/23 13:41:14;;;;;;;3.87;2.50;;;;;;;-145.69;91.16;73653.56;5040074;28;20280;-77
2022/01/23 13:52:09;;;;;;;6.17;2.80;;;;;;;-145.69;90.13;73659.53;5028776;28;20204;-78
2022/01/23 13:57:45;;;;;;;3.87;2.30;;;;;;;-145.69;92.78;73691.38;5029514;28;20231;-78
2022/01/23 14:00:16;;;;;;;5.73;2.80;;;;;;;-145.69;93.63;73721.25;5029339;28;20227;-76
2022/01/23 14:02:47;;;;;;;4.47;2.60;;;;;;;-145.69;95.76;73737.19;5029259;28;20555;-78